Time;durP1;ratioP1;P1;durP2;ratioP2;P2;SDS_P1;SDS_P2;PMS_P1;PMS_P2;Temp;Humidity;BMP_temperature;BMP_pressure;BME280_temperature;BME280_humidity;BME280_pressure;Samples;Min_cycle;Max_cycle;Signal;HPM_P1;HPM_P2
2022/04/29 00:00:07;;;;;;;5.53;5.03;;;;;;;15.88;100.00;99882.03;5112943;28;20290;-66
2022/04/29 00:02:35;;;;;;;6.07;5.67;;;;;;;15.83;100.00;99876.25;5112589;28;20202;-66
2022/04/29 00:05:03;;;;;;;6.57;5.70;;;;;;;15.71;100.00;99872.44;5112987;28;20722;-67
2022/04/29 00:07:30;;;;;;;9.50;6.27;;;;;;;15.66;100.00;99879.56;5112666;28;20198;-66
2022/04/29 00:09:57;;;;;;;7.07;6.40;;;;;;;15.54;100.00;99872.34;5109634;28;20195;-66
2022/04/29 00:12:25;;;;;;;5.90;5.43;;;;;;;15.50;100.00;99865.63;5111002;28;20294;-66
2022/04/29 00:14:52;;;;;;;7.67;7.07;;;;;;;15.37;100.00;99862.69;5112370;28;20642;-66
2022/04/29 00:17:19;;;;;;;7.07;6.47;;;;;;;15.29;100.00;99856.13;5112543;28;20306;-67
2022/04/29 00:19:46;;;;;;;6.33;5.93;;;;;;;15.20;100.00;99847.03;5110174;28;20285;-66
2022/04/29 00:22:14;;;;;;;8.10;7.40;;;;;;;15.14;100.00;99857.63;5112644;28;20199;-67
2022/04/29 00:24:41;;;;;;;7.57;7.03;;;;;;;15.11;100.00;99853.44;5112324;28;20203;-66
2022/04/29 00:27:08;;;;;;;6.73;6.23;;;;;;;15.08;100.00;99853.56;5106811;28;20716;-66
2022/04/29 00:29:35;;;;;;;9.27;7.53;;;;;;;14.99;100.00;99845.38;5112333;28;20281;-67
2022/04/29 00:32:02;;;;;;;7.50;6.80;;;;;;;14.96;100.00;99854.03;5112216;28;20828;-67
2022/04/29 00:34:29;;;;;;;8.07;7.37;;;;;;;15.00;100.00;99865.94;5112522;28;20218;-66
2022/04/29 00:36:56;;;;;;;8.63;7.93;;;;;;;14.97;100.00;99858.31;5111293;28;20290;-66
2022/04/29 00:39:24;;;;;;;9.13;7.73;;;;;;;15.00;100.00;99860.78;5112111;28;20215;-66
2022/04/29 00:41:51;;;;;;;7.77;7.27;;;;;;;14.98;100.00;99854.00;5111685;28;20219;-66
2022/04/29 00:44:18;;;;;;;12.03;8.47;;;;;;;14.96;100.00;99858.41;5107175;28;20195;-67
2022/04/29 00:46:47;;;;;;;9.37;8.67;;;;;;;14.93;100.00;99859.34;5109822;28;20200;-66
2022/04/29 00:49:16;;;;;;;8.30;7.67;;;;;;;14.97;100.00;99860.06;5111338;28;20583;-66
2022/04/29 00:51:47;;;;;;;8.30;7.53;;;;;;;14.84;100.00;99838.22;5111075;28;20196;-66
2022/04/29 00:54:19;;;;;;;11.07;8.13;;;;;;;14.84;100.00;99833.06;5111780;28;20198;-66
2022/04/29 00:56:50;;;;;;;13.23;8.67;;;;;;;14.88;100.00;99848.38;5111676;28;20290;-66
2022/04/29 00:59:29;;;;;;;10.80;9.70;;;;;;;14.91;100.00;99849.97;5111698;28;20762;-66
2022/04/29 01:01:57;;;;;;;9.53;8.60;;;;;;;14.97;100.00;99849.72;5110386;28;20277;-66
2022/04/29 01:04:29;;;;;;;9.27;8.47;;;;;;;15.01;100.00;99851.28;5106335;28;20205;-67
2022/04/29 01:06:57;;;;;;;11.53;9.60;;;;;;;15.01;100.00;99851.28;5111860;28;20209;-66
2022/04/29 01:09:24;;;;;;;11.50;10.23;;;;;;;14.97;100.00;99842.81;5111470;28;20282;-67
2022/04/29 01:11:52;;;;;;;10.30;9.40;;;;;;;15.00;100.00;99854.75;5111720;28;20234;-66
2022/04/29 01:14:19;;;;;;;9.03;8.23;;;;;;;15.02;100.00;99842.66;5107381;28;20205;-66
2022/04/29 01:16:46;;;;;;;9.63;8.73;;;;;;;15.05;100.00;99842.53;5111808;28;20659;-66
2022/04/29 01:19:13;;;;;;;9.57;8.57;;;;;;;15.03;100.00;99837.41;5110636;28;20217;-66
2022/04/29 01:21:41;;;;;;;9.33;8.60;;;;;;;15.05;100.00;99850.28;5111321;28;20589;-66
2022/04/29 01:24:10;;;;;;;11.20;9.43;;;;;;;15.05;100.00;99845.09;5109345;28;20225;-67
2022/04/29 01:26:36;;;;;;;14.03;9.33;;;;;;;15.01;100.00;99841.81;5111099;28;20680;-66
2022/04/29 01:29:06;;;;;;;9.53;8.70;;;;;;;15.00;100.00;99834.94;5110143;28;20637;-66
2022/04/29 01:31:34;;;;;;;11.03;9.93;;;;;;;14.99;100.00;99829.88;5105484;28;20256;-67
2022/04/29 01:34:01;;;;;;;9.97;9.00;;;;;;;15.00;100.00;99837.53;5111136;28;20240;-66
2022/04/29 01:36:28;;;;;;;10.37;9.33;;;;;;;14.99;100.00;99828.09;5108040;28;20195;-67
2022/04/29 01:38:55;;;;;;;12.73;9.87;;;;;;;14.99;100.00;99832.44;5111316;28;20302;-66
2022/04/29 01:41:24;;;;;;;10.67;9.57;;;;;;;14.94;100.00;99829.19;5111023;28;20729;-66
2022/04/29 01:43:50;;;;;;;10.17;9.13;;;;;;;14.91;100.00;99819.84;5111491;28;20660;-67
2022/04/29 01:46:17;;;;;;;12.07;8.77;;;;;;;14.87;100.00;99823.44;5109804;28;20206;-67
2022/04/29 01:48:44;;;;;;;10.50;9.50;;;;;;;14.83;100.00;99816.72;5110358;28;20286;-67
2022/04/29 01:51:11;;;;;;;12.83;10.00;;;;;;;14.84;100.00;99827.91;5108987;28;20745;-66
2022/04/29 01:53:38;;;;;;;10.70;9.60;;;;;;;14.81;100.00;99830.59;5108778;28;20281;-66
2022/04/29 01:56:06;;;;;;;14.60;9.97;;;;;;;14.82;100.00;99824.53;5107983;28;20286;-66
2022/04/29 01:58:34;;;;;;;10.20;9.20;;;;;;;14.69;100.00;99794.09;5109139;28;20206;-67
2022/04/29 02:01:01;;;;;;;10.30;9.23;;;;;;;14.83;100.00;99811.56;5109314;28;20196;-67
2022/04/29 02:03:28;;;;;;;10.47;9.57;;;;;;;14.88;100.00;99825.13;5109072;28;20566;-66
2022/04/29 02:05:55;;;;;;;10.70;9.67;;;;;;;14.89;100.00;99825.97;5110928;28;20289;-66
2022/04/29 02:08:22;;;;;;;11.73;9.97;;;;;;;14.85;100.00;99819.25;5110443;28;20194;-66
2022/04/29 02:10:49;;;;;;;11.00;9.90;;;;;;;14.91;100.00;99825.00;5109996;28;20722;-66
2022/04/29 02:13:15;;;;;;;10.90;9.80;;;;;;;14.88;100.00;99825.13;5110828;28;20290;-67
2022/04/29 02:15:45;;;;;;;11.27;10.07;;;;;;;14.87;100.00;99827.75;5110661;28;20191;-67
2022/04/29 02:18:12;;;;;;;11.37;9.77;;;;;;;14.90;100.00;99838.81;5107570;28;20260;-67
2022/04/29 02:20:39;;;;;;;11.47;10.30;;;;;;;14.90;100.00;99833.66;5110200;28;20194;-66
2022/04/29 02:23:06;;;;;;;12.27;10.23;;;;;;;14.88;100.00;99829.44;5111059;28;20682;-66
2022/04/29 02:25:33;;;;;;;14.87;11.10;;;;;;;14.85;100.00;99825.25;5110722;28;20259;-66
2022/04/29 02:28:00;;;;;;;11.20;9.07;;;;;;;14.83;100.00;99833.97;5110500;28;20315;-66
2022/04/29 02:30:27;;;;;;;12.27;10.07;;;;;;;14.76;100.00;99829.97;5109976;28;20199;-66
2022/04/29 02:32:55;;;;;;;10.90;9.80;;;;;;;14.73;100.00;99832.66;5114151;28;20210;-66
2022/04/29 02:35:22;;;;;;;11.70;10.40;;;;;;;14.68;100.00;99828.53;5114917;28;20314;-66
2022/04/29 02:37:49;;;;;;;11.03;10.03;;;;;;;14.66;100.00;99835.50;5114624;28;20655;-67
2022/04/29 02:40:16;;;;;;;12.00;10.50;;;;;;;14.65;100.00;99838.97;5114415;28;20290;-66
2022/04/29 02:42:43;;;;;;;10.60;9.60;;;;;;;14.62;100.00;99844.25;5113630;28;20295;-66
2022/04/29 02:45:11;;;;;;;10.57;9.57;;;;;;;14.67;100.00;99846.63;5114603;28;20202;-67
2022/04/29 02:47:38;;;;;;;14.37;10.90;;;;;;;14.66;100.00;99845.81;5109204;28;20198;-66
2022/04/29 02:50:08;;;;;;;14.53;9.90;;;;;;;14.66;100.00;99850.97;5114701;28;20226;-66
2022/04/29 02:52:35;;;;;;;10.87;9.83;;;;;;;14.57;100.00;99829.88;5114089;28;20202;-66
2022/04/29 02:55:02;;;;;;;12.80;10.27;;;;;;;14.67;100.00;99852.63;5113497;28;20290;-66
2022/04/29 02:57:29;;;;;;;13.93;10.10;;;;;;;14.67;100.00;99849.22;5114409;28;20201;-67
2022/04/29 02:59:56;;;;;;;10.67;9.77;;;;;;;14.62;100.00;99854.56;5114018;28;20638;-66
2022/04/29 03:02:23;;;;;;;13.80;10.93;;;;;;;14.58;100.00;99860.75;5109647;28;20662;-66
2022/04/29 03:04:50;;;;;;;12.73;10.37;;;;;;;14.54;100.00;99848.84;5112706;28;20230;-66
2022/04/29 03:07:18;;;;;;;13.40;10.43;;;;;;;14.51;100.00;99856.72;5113758;28;20252;-66
2022/04/29 03:09:47;;;;;;;10.53;9.47;;;;;;;14.47;100.00;99855.19;5114214;28;20651;-66
2022/04/29 03:12:14;;;;;;;10.37;9.57;;;;;;;14.48;100.00;99861.16;5108714;28;20286;-66
2022/04/29 03:14:41;;;;;;;10.97;9.83;;;;;;;14.46;100.00;99863.81;5114121;28;20544;-67
2022/04/29 03:18:17;;;;;;;11.13;10.13;;;;;;;14.48;100.00;99867.16;5114104;28;20206;-66
2022/04/29 03:19:58;;;;;;;11.60;10.23;;;;;;;14.44;100.00;99870.75;5106517;28;20218;-66
2022/04/29 03:22:27;;;;;;;18.47;11.13;;;;;;;14.39;100.00;99869.25;5109774;28;20202;-66
2022/04/29 03:24:54;;;;;;;12.90;11.60;;;;;;;14.37;100.00;99873.63;5111943;28;20289;-66
2022/04/29 03:27:21;;;;;;;10.13;9.23;;;;;;;14.26;100.00;99855.94;5114065;28;20336;-66
2022/04/29 03:29:48;;;;;;;11.70;10.50;;;;;;;14.31;100.00;99881.59;5112945;28;20209;-66
2022/04/29 03:32:15;;;;;;;11.93;10.83;;;;;;;14.32;100.00;99875.50;5113590;28;20551;-66
2022/04/29 03:34:42;;;;;;;14.03;10.80;;;;;;;14.30;100.00;99883.31;5113027;28;20289;-66
2022/04/29 03:37:09;;;;;;;11.37;9.80;;;;;;;14.27;100.00;99880.84;5112574;28;20209;-66
2022/04/29 03:39:37;;;;;;;12.33;10.93;;;;;;;14.22;100.00;99882.75;5112674;28;20234;-66
2022/04/29 03:42:05;;;;;;;11.00;10.07;;;;;;;14.25;100.00;99884.38;5110317;28;20219;-66
2022/04/29 03:44:32;;;;;;;11.53;10.37;;;;;;;14.27;100.00;99886.00;5113437;28;20681;-66
2022/04/29 03:46:59;;;;;;;11.07;10.00;;;;;;;14.31;100.00;99884.16;5113121;28;20198;-66
2022/04/29 03:49:37;;;;;;;12.13;10.93;;;;;;;14.33;100.00;99883.22;5106749;28;20722;-66
2022/04/29 03:52:05;;;;;;;10.50;9.50;;;;;;;14.31;100.00;99885.00;5112765;28;20237;-66
2022/04/29 03:54:33;;;;;;;9.97;8.97;;;;;;;14.35;100.00;99885.72;5112655;28;20198;-66
2022/04/29 03:57:01;;;;;;;9.57;8.67;;;;;;;14.38;100.00;99891.63;5109001;28;20658;-66
2022/04/29 03:59:28;;;;;;;9.07;8.20;;;;;;;14.42;100.00;99882.88;5110913;28;20221;-67
2022/04/29 04:01:55;;;;;;;10.70;9.60;;;;;;;14.41;100.00;99891.50;5110386;28;20198;-67
2022/04/29 04:04:22;;;;;;;10.00;9.00;;;;;;;14.38;100.00;99878.72;5111172;28;20274;-66
2022/04/29 04:06:52;;;;;;;11.03;9.50;;;;;;;14.45;100.00;99898.22;5110637;28;20282;-66
2022/04/29 04:09:21;;;;;;;10.33;9.43;;;;;;;14.51;100.00;99892.84;5111155;28;20202;-66
2022/04/29 04:11:48;;;;;;;10.13;9.07;;;;;;;14.54;100.00;99897.88;5112063;28;20747;-67
2022/04/29 04:14:18;;;;;;;10.40;9.50;;;;;;;14.59;100.00;99895.97;5112333;28;20194;-66
2022/04/29 04:16:45;;;;;;;9.83;9.03;;;;;;;14.46;100.00;99884.44;5112162;28;20284;-66
2022/04/29 04:19:12;;;;;;;10.37;9.37;;;;;;;14.52;100.00;99898.84;5112746;28;20210;-66
2022/04/29 04:21:39;;;;;;;10.93;9.83;;;;;;;14.52;100.00;99894.53;5108825;28;20285;-66
2022/04/29 04:24:07;;;;;;;11.27;10.13;;;;;;;14.50;100.00;99887.75;5115760;27;20732;-66
2022/04/29 04:26:34;;;;;;;11.10;10.07;;;;;;;14.61;100.00;99903.66;5109164;28;20201;-66
2022/04/29 04:29:01;;;;;;;11.53;10.07;;;;;;;14.64;100.00;99899.22;5111318;28;20286;-66
2022/04/29 04:31:30;;;;;;;11.87;9.90;;;;;;;14.60;100.00;99902.81;5109146;28;20591;-66
2022/04/29 04:33:57;;;;;;;11.00;9.90;;;;;;;14.58;100.00;99903.75;5111309;28;20722;-67
2022/04/29 04:36:24;;;;;;;11.83;9.17;;;;;;;14.54;100.00;99892.72;5110181;28;20205;-66
2022/04/29 04:38:50;;;;;;;9.67;8.63;;;;;;;14.73;100.00;99893.69;5107061;28;20594;-66
2022/04/29 04:41:18;;;;;;;10.60;9.50;;;;;;;14.80;100.00;99906.38;5108961;28;20759;-66
2022/04/29 04:43:45;;;;;;;30.77;11.17;;;;;;;14.89;100.00;99904.28;5111259;28;20195;-66
2022/04/29 04:46:13;;;;;;;17.70;9.27;;;;;;;14.89;100.00;99903.44;5109755;28;20203;-66
2022/04/29 04:48:43;;;;;;;21.20;9.60;;;;;;;14.82;100.00;99907.16;5111924;28;20244;-66
2022/04/29 04:51:10;;;;;;;14.47;10.53;;;;;;;14.82;100.00;99912.31;5107537;28;20715;-66
2022/04/29 04:53:37;;;;;;;14.40;10.07;;;;;;;14.84;100.00;99905.34;5110324;28;20210;-66
2022/04/29 04:56:04;;;;;;;11.77;10.40;;;;;;;14.79;100.00;99912.44;5111405;28;20578;-67
2022/04/29 04:58:32;;;;;;;11.60;10.00;;;;;;;14.83;100.00;99906.25;5111491;28;20203;-66
2022/04/29 05:01:00;;;;;;;20.27;10.57;;;;;;;14.84;100.00;99915.66;5111297;28;20233;-66
2022/04/29 05:03:27;;;;;;;11.67;10.13;;;;;;;14.88;100.00;99912.06;5110764;28;20206;-66
2022/04/29 05:05:55;;;;;;;10.70;9.80;;;;;;;14.90;100.00;99910.25;5110987;28;20749;-67
2022/04/29 05:08:22;;;;;;;10.27;9.37;;;;;;;14.97;100.00;99909.09;5111419;28;20285;-67
2022/04/29 05:10:49;;;;;;;9.93;8.80;;;;;;;14.98;100.00;99908.22;5111385;28;20282;-67
2022/04/29 05:13:16;;;;;;;9.87;9.00;;;;;;;15.00;100.00;99911.56;5111265;28;20191;-67
2022/04/29 05:15:43;;;;;;;10.90;9.90;;;;;;;14.92;100.00;99898.97;5110484;28;20652;-66
2022/04/29 05:18:10;;;;;;;10.47;9.47;;;;;;;15.03;100.00;99906.28;5110706;28;20681;-66
2022/04/29 05:20:37;;;;;;;10.57;9.57;;;;;;;15.13;100.00;99917.91;5111444;28;20749;-66
2022/04/29 05:23:05;;;;;;;10.23;9.33;;;;;;;15.14;100.00;99924.78;5110934;28;20205;-65
2022/04/29 05:25:32;;;;;;;11.37;10.27;;;;;;;15.16;100.00;99922.97;5110549;28;20265;-66
2022/04/29 05:27:59;;;;;;;11.47;10.43;;;;;;;15.10;100.00;99933.53;5110349;28;20199;-66
2022/04/29 05:30:27;;;;;;;12.27;10.30;;;;;;;15.10;100.00;99930.97;5111458;28;20281;-67
2022/04/29 05:32:54;;;;;;;12.93;9.87;;;;;;;15.12;100.00;99929.16;5110751;28;20286;-67
2022/04/29 05:35:22;;;;;;;11.33;9.30;;;;;;;15.16;100.00;99928.97;5110287;28;20303;-67
2022/04/29 05:37:49;;;;;;;11.07;10.17;;;;;;;15.14;100.00;99935.94;5109924;28;20203;-67
2022/04/29 05:43:02;;;;;;;14.77;10.57;;;;;;;15.14;100.00;99927.34;5110421;28;20205;-66
2022/04/29 05:45:29;;;;;;;11.47;9.60;;;;;;;15.05;100.00;99922.56;5110006;28;20293;-66
2022/04/29 05:47:56;;;;;;;10.03;9.13;;;;;;;15.14;100.00;99935.09;5112360;28;20202;-67
2022/04/29 05:50:23;;;;;;;11.90;10.07;;;;;;;15.20;100.00;99935.69;5109976;28;20191;-67
2022/04/29 05:52:50;;;;;;;11.30;10.13;;;;;;;15.30;100.00;99936.16;5110758;28;20290;-67
2022/04/29 05:55:18;;;;;;;10.87;9.77;;;;;;;15.36;100.00;99933.31;5109167;28;20190;-66
2022/04/29 05:57:45;;;;;;;11.60;10.50;;;;;;;15.39;100.00;99940.94;5110345;28;20206;-67
2022/04/29 06:00:13;;;;;;;12.17;11.07;;;;;;;15.44;100.00;99941.63;5110833;28;20213;-67
2022/04/29 06:02:40;;;;;;;10.03;9.13;;;;;;;15.56;100.00;99933.38;5110783;28;20574;-67
2022/04/29 06:05:08;;;;;;;10.37;9.37;;;;;;;15.59;100.00;99943.59;5107030;28;20653;-66
2022/04/29 06:07:35;;;;;;;9.67;8.83;;;;;;;15.57;100.00;99945.38;5113101;28;20211;-66
2022/04/29 06:10:02;;;;;;;11.70;9.87;;;;;;;15.54;100.00;99940.34;5111891;27;20649;-62
2022/04/29 06:12:30;;;;;;;11.23;10.23;;;;;;;15.54;100.00;99935.16;5109499;28;20199;-61
2022/04/29 06:14:57;;;;;;;12.03;10.57;;;;;;;15.61;100.00;99938.34;5112276;28;20582;-61
2022/04/29 06:17:24;;;;;;;10.83;9.77;;;;;;;15.67;100.00;99936.34;5112126;28;20207;-62
2022/04/29 06:19:51;;;;;;;11.20;10.20;;;;;;;15.70;100.00;99936.19;5112953;28;20590;-62
2022/04/29 06:22:17;;;;;;;11.20;10.10;;;;;;;15.73;100.00;99938.66;5112150;28;20217;-62
2022/04/29 06:24:45;;;;;;;11.13;10.03;;;;;;;15.77;100.00;99935.97;5112219;28;20570;-61
2022/04/29 06:27:12;;;;;;;10.20;9.13;;;;;;;15.83;100.00;99946.88;5113033;28;20206;-61
2022/04/29 06:29:40;;;;;;;13.87;9.80;;;;;;;15.86;100.00;99946.75;5111653;28;20206;-61
2022/04/29 06:32:07;;;;;;;10.20;9.40;;;;;;;15.88;100.00;99955.28;5113360;28;20198;-62
2022/04/29 06:34:34;;;;;;;10.77;9.67;;;;;;;15.91;100.00;99952.56;5112554;28;20687;-62
2022/04/29 06:37:01;;;;;;;12.97;10.70;;;;;;;15.93;100.00;99950.72;5113054;28;20570;-62
2022/04/29 06:39:28;;;;;;;12.00;9.53;;;;;;;15.91;100.00;99951.72;5112926;27;20313;-62
2022/04/29 06:41:55;;;;;;;11.97;9.83;;;;;;;15.91;100.00;99951.72;5111784;28;20750;-61
2022/04/29 06:44:22;;;;;;;15.93;10.47;;;;;;;15.93;100.00;99952.50;5111862;28;20199;-62
2022/04/29 06:46:51;;;;;;;11.33;10.23;;;;;;;15.93;100.00;99952.50;5110989;28;20203;-61
2022/04/29 06:49:18;;;;;;;10.43;9.47;;;;;;;15.93;100.00;99947.34;5112849;28;20194;-61
2022/04/29 06:51:44;;;;;;;32.30;12.33;;;;;;;15.99;100.00;99962.59;5112107;28;20209;-62
2022/04/29 06:54:11;;;;;;;10.00;9.07;;;;;;;16.04;100.00;99950.28;5111774;28;20645;-62
2022/04/29 06:56:38;;;;;;;11.03;10.03;;;;;;;16.12;100.00;99963.72;5112652;28;20203;-62
2022/04/29 06:59:05;;;;;;;10.63;9.63;;;;;;;16.11;100.00;99956.88;5112524;28;20214;-62
2022/04/29 07:01:33;;;;;;;10.77;9.70;;;;;;;16.08;100.00;99963.03;5111280;28;20204;-62
2022/04/29 07:04:01;;;;;;;9.87;9.03;;;;;;;16.09;100.00;99966.44;5112556;28;20199;-62
2022/04/29 07:06:28;;;;;;;10.77;9.77;;;;;;;16.10;100.00;99966.38;5112905;28;20301;-62
2022/04/29 07:08:55;;;;;;;9.40;8.67;;;;;;;16.16;100.00;99960.06;5112987;28;20207;-62
2022/04/29 07:11:22;;;;;;;9.13;8.23;;;;;;;16.13;100.00;99960.22;5112573;28;20197;-62
2022/04/29 07:13:51;;;;;;;9.60;8.70;;;;;;;16.18;100.00;99963.47;5110852;28;20213;-61
2022/04/29 07:16:19;;;;;;;9.97;9.00;;;;;;;16.20;100.00;99957.31;5113163;28;20203;-62
2022/04/29 07:18:46;;;;;;;9.37;8.50;;;;;;;16.33;100.00;99962.75;5112140;28;20261;-61
2022/04/29 07:21:14;;;;;;;10.40;9.60;;;;;;;16.37;100.00;99969.50;5112023;28;20223;-62
2022/04/29 07:23:41;;;;;;;10.03;9.23;;;;;;;16.47;100.00;99960.41;5112098;28;20282;-62
2022/04/29 07:26:08;;;;;;;9.30;8.53;;;;;;;16.53;100.00;99970.47;5111090;28;20291;-61
2022/04/29 07:28:35;;;;;;;10.40;9.37;;;;;;;16.60;100.00;99965.91;5111737;28;20274;-62
2022/04/29 07:31:02;;;;;;;9.40;8.47;;;;;;;16.69;100.00;99971.50;5112947;28;20667;-62
2022/04/29 07:33:29;;;;;;;11.80;8.20;;;;;;;16.77;100.00;99969.38;5111353;28;20293;-70
2022/04/29 07:44:10;;;;;;;26.07;9.97;;;;;;;17.21;100.00;99979.41;5112417;28;20279;-65
2022/04/29 07:46:37;;;;;;;9.37;8.63;;;;;;;17.29;98.73;99972.09;5112227;28;20282;-66
2022/04/29 07:49:04;;;;;;;10.30;8.97;;;;;;;17.39;99.34;99981.09;5110858;27;20206;-66
2022/04/29 07:51:31;;;;;;;9.47;8.57;;;;;;;17.52;98.67;99966.63;5111715;28;20281;-66
2022/04/29 07:54:00;;;;;;;9.23;8.53;;;;;;;17.65;99.36;99977.25;5111866;27;20662;-66
2022/04/29 07:56:26;;;;;;;8.73;7.93;;;;;;;17.72;97.74;99976.88;5114274;27;20559;-65
2022/04/29 07:58:55;;;;;;;9.03;8.17;;;;;;;17.81;96.58;99976.41;5111757;28;20289;-66
2022/04/29 08:01:22;;;;;;;11.57;8.53;;;;;;;17.86;94.55;99973.59;5112416;28;20662;-65
2022/04/29 08:03:49;;;;;;;9.93;9.10;;;;;;;17.91;93.30;99965.56;5110851;28;20647;-66
2022/04/29 08:06:16;;;;;;;9.27;8.53;;;;;;;18.08;94.62;99968.97;5109740;28;20582;-66
2022/04/29 08:08:43;;;;;;;8.37;7.57;;;;;;;18.22;94.40;99961.28;5108825;28;20744;-66
2022/04/29 08:11:11;;;;;;;8.27;7.57;;;;;;;18.32;92.53;99969.44;5109417;28;20205;-65
2022/04/29 08:13:38;;;;;;;12.90;8.93;;;;;;;18.36;92.78;99968.38;5109764;28;20210;-66
2022/04/29 08:16:07;;;;;;;8.23;7.53;;;;;;;18.33;91.24;99979.75;5110973;28;20285;-66
2022/04/29 08:18:34;;;;;;;11.03;8.10;;;;;;;18.35;91.24;99969.31;5111512;28;20209;-66
2022/04/29 08:21:01;;;;;;;8.03;7.53;;;;;;;18.43;92.53;99972.31;5110135;28;20567;-66
2022/04/29 08:23:28;;;;;;;8.70;7.90;;;;;;;18.54;93.44;99972.63;5107829;28;20718;-66
2022/04/29 08:25:55;;;;;;;8.40;7.63;;;;;;;18.61;90.63;99967.94;5110901;28;20281;-66
2022/04/29 08:28:25;;;;;;;8.80;7.93;;;;;;;18.74;91.32;99967.16;5109080;28;20199;-66
2022/04/29 08:30:52;;;;;;;7.67;7.13;;;;;;;18.81;89.61;99965.91;5112121;28;20195;-66
2022/04/29 08:33:21;;;;;;;10.27;8.40;;;;;;;18.91;89.19;99963.66;5108234;28;20218;-66
2022/04/29 08:35:48;;;;;;;8.67;7.80;;;;;;;18.98;87.99;99969.34;5110177;28;20203;-68
2022/04/29 08:38:16;;;;;;;8.47;7.77;;;;;;;19.11;86.76;99957.34;5110445;28;20203;-67
2022/04/29 08:40:44;;;;;;;7.90;7.10;;;;;;;19.25;88.20;99960.03;5108366;28;20724;-66
2022/04/29 08:43:13;;;;;;;8.40;7.70;;;;;;;19.31;86.43;99964.88;5110007;28;20194;-66
2022/04/29 08:45:42;;;;;;;7.47;6.80;;;;;;;19.34;90.48;99954.28;5107468;28;20211;-66
2022/04/29 08:48:10;;;;;;;7.53;7.00;;;;;;;19.39;88.39;99957.44;5109164;28;20199;-66
2022/04/29 08:50:37;;;;;;;8.70;7.97;;;;;;;19.39;86.85;99949.66;5108861;28;20199;-66
2022/04/29 08:53:04;;;;;;;15.00;7.97;;;;;;;19.45;85.09;99951.94;5110109;28;20210;-66
2022/04/29 09:01:05;;;;;;;7.77;7.17;;;;;;;19.90;85.66;99943.22;5108228;28;20221;-66
2022/04/29 09:03:32;;;;;;;8.33;7.73;;;;;;;19.92;85.63;99926.56;5104613;28;20874;-66
2022/04/29 09:05:59;;;;;;;7.60;7.10;;;;;;;20.13;85.90;99944.44;5108101;28;20285;-66
2022/04/29 09:08:27;;;;;;;8.30;7.63;;;;;;;20.28;85.34;99948.72;5107414;28;20213;-66
2022/04/29 09:10:56;;;;;;;8.70;8.00;;;;;;;20.42;83.27;99946.09;5110701;28;20203;-66
2022/04/29 09:13:24;;;;;;;8.60;7.80;;;;;;;20.52;84.63;99944.59;5108971;28;20209;-65
2022/04/29 09:15:54;;;;;;;8.60;7.90;;;;;;;20.58;83.21;99946.00;5110941;28;20687;-66
2022/04/29 09:18:37;;;;;;;6.97;6.57;;;;;;;20.57;81.80;99947.78;5110667;28;20212;-66
2022/04/29 09:21:07;;;;;;;7.07;6.57;;;;;;;20.63;80.66;99947.38;5107840;28;20310;-66
2022/04/29 09:23:36;;;;;;;7.67;7.07;;;;;;;20.49;79.66;99942.19;5110036;28;20199;-66
2022/04/29 09:26:05;;;;;;;8.17;7.67;;;;;;;20.40;81.66;99938.41;5107630;28;20194;-66
2022/04/29 09:28:34;;;;;;;7.57;7.17;;;;;;;20.52;81.60;99936.78;5106984;28;20199;-66
2022/04/29 09:31:02;;;;;;;6.43;6.03;;;;;;;20.52;81.49;99921.16;5110074;28;20693;-66
2022/04/29 09:33:29;;;;;;;8.00;7.33;;;;;;;20.73;79.47;99934.63;5108240;28;20202;-65
2022/04/29 09:35:58;;;;;;;6.57;6.17;;;;;;;20.90;79.05;99940.41;5107809;28;20203;-66
2022/04/29 09:41:09;;;;;;;6.97;6.47;;;;;;;21.07;77.52;99930.66;5104964;28;20317;-66
2022/04/29 09:43:38;;;;;;;7.33;6.73;;;;;;;21.20;75.59;99926.38;5108893;28;20208;-65
2022/04/29 09:46:13;;;;;;;7.60;6.97;;;;;;;21.28;77.99;99924.94;5108535;28;20283;-66
2022/04/29 09:48:58;;;;;;;7.17;6.57;;;;;;;21.44;78.34;99933.44;5109371;28;20202;-65
2022/04/29 09:51:45;;;;;;;6.73;6.33;;;;;;;21.55;76.04;99919.66;5108662;28;20302;-66
2022/04/29 09:54:15;;;;;;;6.60;6.10;;;;;;;21.63;77.42;99922.59;5103116;28;20963;-66
2022/04/29 09:56:42;;;;;;;7.63;6.67;;;;;;;21.80;76.18;99918.84;5106423;28;20200;-66
2022/04/29 09:59:09;;;;;;;6.70;6.30;;;;;;;21.88;76.27;99914.75;5105856;28;20673;-66
2022/04/29 10:01:36;;;;;;;7.00;6.50;;;;;;;21.96;74.76;99922.13;5107115;28;20213;-66
2022/04/29 10:04:03;;;;;;;8.27;6.23;;;;;;;21.91;74.64;99916.34;5108518;28;20226;-65
2022/04/29 10:06:32;;;;;;;6.80;6.40;;;;;;;21.95;79.02;99910.84;5109598;28;20203;-66
2022/04/29 10:09:01;;;;;;;6.77;6.27;;;;;;;21.98;76.88;99901.94;5107215;28;20233;-66
2022/04/29 10:11:29;;;;;;;6.73;6.10;;;;;;;22.09;76.38;99903.81;5106390;28;20200;-66
2022/04/29 10:14:02;;;;;;;7.20;6.73;;;;;;;22.21;72.90;99902.97;5106707;28;20199;-66
2022/04/29 10:16:33;;;;;;;6.33;5.93;;;;;;;22.27;75.46;99902.53;5106273;28;20267;-66
2022/04/29 10:21:50;;;;;;;6.57;6.17;;;;;;;21.96;75.58;99899.47;5106181;28;20226;-66
2022/04/29 10:24:19;;;;;;;11.63;6.63;;;;;;;21.73;74.62;99902.78;5108499;28;20628;-66
2022/04/29 10:26:48;;;;;;;7.23;6.67;;;;;;;21.75;75.61;99895.66;5100889;28;20224;-66
2022/04/29 10:29:15;;;;;;;6.80;6.30;;;;;;;21.88;74.23;99895.66;5108537;28;20442;-62
2022/04/29 10:31:43;;;;;;;7.10;6.60;;;;;;;22.05;75.60;99891.91;5104380;28;20187;-62
2022/04/29 10:34:31;;;;;;;7.53;6.93;;;;;;;22.15;75.63;99887.72;5109295;28;20224;-65
2022/04/29 10:36:59;;;;;;;6.47;6.07;;;;;;;22.16;74.22;99894.63;5107997;28;20685;-62
2022/04/29 10:39:30;;;;;;;7.83;6.57;;;;;;;22.14;71.00;99897.31;5110928;28;20266;-63
2022/04/29 10:42:03;;;;;;;7.73;6.53;;;;;;;22.18;73.65;99898.78;5112727;28;20221;-64
2022/04/29 10:44:31;;;;;;;5.43;5.13;;;;;;;22.03;68.98;99904.25;5111693;28;20195;-62
2022/04/29 10:47:29;;;;;;;5.80;5.43;;;;;;;21.95;73.27;99892.56;5112324;28;20205;-62
2022/04/29 10:50:38;;;;;;;6.07;5.77;;;;;;;22.08;75.41;99882.09;5107864;28;20666;-62
2022/04/29 10:53:07;;;;;;;5.83;5.50;;;;;;;22.12;74.45;99882.72;5111749;28;20854;-62
2022/04/29 10:55:36;;;;;;;11.00;6.00;;;;;;;22.23;76.51;99880.19;5115166;28;20666;-61
2022/04/29 10:58:05;;;;;;;6.80;6.40;;;;;;;22.32;76.87;99875.16;5116505;28;20206;-62
2022/04/29 11:00:33;;;;;;;7.43;6.93;;;;;;;22.40;72.73;99883.28;5115999;28;20294;-62
2022/04/29 11:03:38;;;;;;;6.63;6.10;;;;;;;22.70;69.44;99875.06;5116710;28;20216;-63
2022/04/29 11:06:13;;;;;;;6.73;6.33;;;;;;;22.92;76.10;99869.91;5116116;28;20682;-62
2022/04/29 11:08:42;;;;;;;6.50;6.00;;;;;;;22.95;73.28;99872.31;5116381;28;20196;-62
2022/04/29 11:11:11;;;;;;;5.53;5.23;;;;;;;23.11;72.16;99872.00;5116059;28;20286;-62
2022/04/29 11:13:44;;;;;;;5.00;4.70;;;;;;;22.96;68.40;99858.28;5114560;28;20231;-62
2022/04/29 11:16:13;;;;;;;6.17;5.87;;;;;;;23.20;72.28;99857.44;5115495;28;20237;-62
2022/04/29 11:18:42;;;;;;;6.53;6.13;;;;;;;23.37;73.20;99856.97;5115441;28;20195;-63
2022/04/29 11:26:46;;;;;;;6.90;6.38;;;;;;;23.13;68.34;99861.44;5110576;28;20429;-70
2022/04/29 11:29:14;;;;;;;6.40;6.00;;;;;;;23.29;69.66;99856.72;5113242;28;20217;-68
2022/04/29 11:31:42;;;;;;;6.93;6.33;;;;;;;23.36;70.33;99852.72;5113175;28;20230;-69
2022/04/29 11:34:10;;;;;;;8.07;6.63;;;;;;;23.41;70.04;99851.44;5110586;28;20286;-68
2022/04/29 11:36:38;;;;;;;6.80;6.20;;;;;;;23.42;70.57;99849.66;5113070;28;20267;-68
2022/04/29 11:39:10;;;;;;;6.23;5.90;;;;;;;23.47;68.99;99855.34;5112336;28;20213;-69
2022/04/29 11:41:37;;;;;;;6.10;5.70;;;;;;;23.47;69.89;99855.34;5113172;27;20348;-69
2022/04/29 11:44:05;;;;;;;6.17;5.70;;;;;;;23.57;69.77;99851.09;5112648;28;20194;-69
2022/04/29 11:46:32;;;;;;;5.87;5.50;;;;;;;23.70;66.86;99848.38;5112657;28;20741;-68
2022/04/29 11:49:01;;;;;;;7.20;6.43;;;;;;;23.92;71.32;99841.34;5112594;28;20206;-68
2022/04/29 11:51:30;;;;;;;6.73;6.33;;;;;;;24.11;66.89;99845.97;5113247;28;20259;-68
2022/04/29 11:54:00;;;;;;;6.13;5.73;;;;;;;24.35;64.90;99848.47;5111057;28;20248;-69